sensor_id;sensor_type;location;lat;lon;timestamp;P1;durP1;ratioP1;P2;durP2;ratioP2
65174;SDS011;51761;42.126;24.752;2023-04-23T00:01:17;21.73;;;14.25;;
65174;SDS011;51761;42.126;24.752;2023-04-23T00:03:43;24.08;;;14.13;;
65174;SDS011;51761;42.126;24.752;2023-04-23T00:06:09;19.52;;;11.88;;
65174;SDS011;51761;42.126;24.752;2023-04-23T00:08:41;19.90;;;12.40;;
65174;SDS011;51761;42.126;24.752;2023-04-23T00:11:07;17.20;;;12.25;;
65174;SDS011;51761;42.126;24.752;2023-04-23T00:13:34;22.23;;;12.23;;
65174;SDS011;51761;42.126;24.752;2023-04-23T00:16:00;17.95;;;11.48;;
65174;SDS011;51761;42.126;24.752;2023-04-23T00:18:26;16.15;;;11.23;;
65174;SDS011;51761;42.126;24.752;2023-04-23T00:20:51;18.55;;;11.85;;
65174;SDS011;51761;42.126;24.752;2023-04-23T00:23:17;17.00;;;11.38;;
65174;SDS011;51761;42.126;24.752;2023-04-23T00:25:42;16.42;;;11.25;;
65174;SDS011;51761;42.126;24.752;2023-04-23T00:28:08;17.70;;;11.40;;
65174;SDS011;51761;42.126;24.752;2023-04-23T00:30:33;21.63;;;12.52;;
65174;SDS011;51761;42.126;24.752;2023-04-23T00:32:59;21.58;;;12.35;;
65174;SDS011;51761;42.126;24.752;2023-04-23T00:35:24;23.95;;;12.45;;
65174;SDS011;51761;42.126;24.752;2023-04-23T00:37:50;22.20;;;11.75;;
65174;SDS011;51761;42.126;24.752;2023-04-23T00:40:16;19.38;;;11.90;;
65174;SDS011;51761;42.126;24.752;2023-04-23T00:42:42;18.23;;;11.30;;
65174;SDS011;51761;42.126;24.752;2023-04-23T00:45:08;20.60;;;11.73;;
65174;SDS011;51761;42.126;24.752;2023-04-23T00:47:34;17.50;;;11.15;;
65174;SDS011;51761;42.126;24.752;2023-04-23T00:50:01;17.95;;;10.90;;
65174;SDS011;51761;42.126;24.752;2023-04-23T00:52:27;13.85;;;9.35;;
65174;SDS011;51761;42.126;24.752;2023-04-23T00:54:53;14.27;;;9.27;;
65174;SDS011;51761;42.126;24.752;2023-04-23T00:57:20;18.30;;;9.38;;
65174;SDS011;51761;42.126;24.752;2023-04-23T00:59:47;15.23;;;9.10;;
65174;SDS011;51761;42.126;24.752;2023-04-23T01:02:13;17.15;;;8.75;;
65174;SDS011;51761;42.126;24.752;2023-04-23T01:04:39;20.10;;;8.57;;
65174;SDS011;51761;42.126;24.752;2023-04-23T01:07:07;16.25;;;8.35;;
65174;SDS011;51761;42.126;24.752;2023-04-23T01:09:33;18.58;;;7.93;;
65174;SDS011;51761;42.126;24.752;2023-04-23T01:11:59;20.50;;;9.13;;
65174;SDS011;51761;42.126;24.752;2023-04-23T01:14:26;16.95;;;7.78;;
65174;SDS011;51761;42.126;24.752;2023-04-23T01:16:52;17.60;;;7.82;;
65174;SDS011;51761;42.126;24.752;2023-04-23T01:19:18;17.98;;;8.75;;
65174;SDS011;51761;42.126;24.752;2023-04-23T01:21:44;15.35;;;8.38;;
65174;SDS011;51761;42.126;24.752;2023-04-23T01:24:09;15.23;;;7.93;;
65174;SDS011;51761;42.126;24.752;2023-04-23T01:26:36;22.67;;;8.02;;
65174;SDS011;51761;42.126;24.752;2023-04-23T01:29:03;17.45;;;8.70;;
65174;SDS011;51761;42.126;24.752;2023-04-23T01:31:29;18.33;;;8.23;;
65174;SDS011;51761;42.126;24.752;2023-04-23T01:33:55;15.73;;;8.68;;
65174;SDS011;51761;42.126;24.752;2023-04-23T01:36:22;18.70;;;8.20;;
65174;SDS011;51761;42.126;24.752;2023-04-23T01:38:48;13.27;;;8.43;;
65174;SDS011;51761;42.126;24.752;2023-04-23T01:41:14;19.85;;;8.55;;
65174;SDS011;51761;42.126;24.752;2023-04-23T01:43:42;17.15;;;7.88;;
65174;SDS011;51761;42.126;24.752;2023-04-23T01:46:09;16.42;;;8.50;;
65174;SDS011;51761;42.126;24.752;2023-04-23T01:48:35;15.98;;;7.97;;
65174;SDS011;51761;42.126;24.752;2023-04-23T01:51:01;16.38;;;8.50;;
65174;SDS011;51761;42.126;24.752;2023-04-23T01:53:27;18.83;;;7.10;;
65174;SDS011;51761;42.126;24.752;2023-04-23T01:55:53;18.98;;;7.65;;
65174;SDS011;51761;42.126;24.752;2023-04-23T01:58:20;15.23;;;7.70;;
65174;SDS011;51761;42.126;24.752;2023-04-23T02:00:47;17.90;;;7.88;;
65174;SDS011;51761;42.126;24.752;2023-04-23T02:03:13;15.70;;;7.80;;
65174;SDS011;51761;42.126;24.752;2023-04-23T02:05:38;12.75;;;8.45;;
65174;SDS011;51761;42.126;24.752;2023-04-23T02:08:05;24.65;;;8.57;;
65174;SDS011;51761;42.126;24.752;2023-04-23T02:10:32;17.00;;;9.75;;
65174;SDS011;51761;42.126;24.752;2023-04-23T02:12:58;21.60;;;8.35;;
65174;SDS011;51761;42.126;24.752;2023-04-23T02:15:24;14.38;;;8.38;;
65174;SDS011;51761;42.126;24.752;2023-04-23T02:17:49;18.80;;;8.35;;
65174;SDS011;51761;42.126;24.752;2023-04-23T02:20:16;15.25;;;8.18;;
65174;SDS011;51761;42.126;24.752;2023-04-23T02:22:42;19.88;;;10.07;;
65174;SDS011;51761;42.126;24.752;2023-04-23T02:25:08;20.95;;;7.47;;
65174;SDS011;51761;42.126;24.752;2023-04-23T02:27:34;13.95;;;8.13;;
65174;SDS011;51761;42.126;24.752;2023-04-23T02:30:00;15.05;;;8.52;;
65174;SDS011;51761;42.126;24.752;2023-04-23T02:32:26;19.60;;;8.10;;
65174;SDS011;51761;42.126;24.752;2023-04-23T02:34:52;13.75;;;7.82;;
65174;SDS011;51761;42.126;24.752;2023-04-23T02:37:18;13.85;;;8.40;;
65174;SDS011;51761;42.126;24.752;2023-04-23T02:39:43;16.98;;;7.45;;
65174;SDS011;51761;42.126;24.752;2023-04-23T02:42:09;20.65;;;7.97;;
65174;SDS011;51761;42.126;24.752;2023-04-23T02:44:35;14.85;;;7.75;;
65174;SDS011;51761;42.126;24.752;2023-04-23T02:47:01;16.27;;;7.93;;
65174;SDS011;51761;42.126;24.752;2023-04-23T02:49:27;17.25;;;7.05;;
65174;SDS011;51761;42.126;24.752;2023-04-23T02:51:52;20.58;;;7.18;;
65174;SDS011;51761;42.126;24.752;2023-04-23T02:54:18;15.32;;;7.07;;
65174;SDS011;51761;42.126;24.752;2023-04-23T02:56:43;22.10;;;7.47;;
65174;SDS011;51761;42.126;24.752;2023-04-23T02:59:09;11.45;;;6.90;;
65174;SDS011;51761;42.126;24.752;2023-04-23T03:01:35;19.52;;;7.82;;
65174;SDS011;51761;42.126;24.752;2023-04-23T03:04:00;24.60;;;8.10;;
65174;SDS011;51761;42.126;24.752;2023-04-23T03:06:27;19.77;;;7.95;;
65174;SDS011;51761;42.126;24.752;2023-04-23T03:08:54;16.25;;;7.53;;
65174;SDS011;51761;42.126;24.752;2023-04-23T03:11:20;15.43;;;7.10;;
65174;SDS011;51761;42.126;24.752;2023-04-23T03:13:46;18.42;;;7.47;;
65174;SDS011;51761;42.126;24.752;2023-04-23T03:16:12;14.63;;;7.15;;
65174;SDS011;51761;42.126;24.752;2023-04-23T03:18:38;17.20;;;8.07;;
65174;SDS011;51761;42.126;24.752;2023-04-23T03:21:03;11.60;;;6.78;;
65174;SDS011;51761;42.126;24.752;2023-04-23T03:23:29;25.13;;;7.60;;
65174;SDS011;51761;42.126;24.752;2023-04-23T03:25:54;17.40;;;7.47;;
65174;SDS011;51761;42.126;24.752;2023-04-23T03:28:20;14.82;;;8.20;;
65174;SDS011;51761;42.126;24.752;2023-04-23T03:30:45;18.90;;;7.30;;
65174;SDS011;51761;42.126;24.752;2023-04-23T03:33:11;14.85;;;6.38;;
65174;SDS011;51761;42.126;24.752;2023-04-23T03:35:36;22.00;;;6.97;;
65174;SDS011;51761;42.126;24.752;2023-04-23T03:38:02;19.55;;;8.18;;
65174;SDS011;51761;42.126;24.752;2023-04-23T03:40:27;21.08;;;7.68;;
65174;SDS011;51761;42.126;24.752;2023-04-23T03:42:53;17.85;;;7.55;;
65174;SDS011;51761;42.126;24.752;2023-04-23T03:45:18;22.10;;;8.43;;
65174;SDS011;51761;42.126;24.752;2023-04-23T03:47:44;16.98;;;7.55;;
65174;SDS011;51761;42.126;24.752;2023-04-23T03:50:10;15.77;;;7.25;;
65174;SDS011;51761;42.126;24.752;2023-04-23T03:52:37;16.95;;;7.47;;
65174;SDS011;51761;42.126;24.752;2023-04-23T03:55:02;13.93;;;6.88;;
65174;SDS011;51761;42.126;24.752;2023-04-23T03:57:28;15.88;;;7.22;;
65174;SDS011;51761;42.126;24.752;2023-04-23T03:59:54;20.73;;;7.32;;
65174;SDS011;51761;42.126;24.752;2023-04-23T04:02:19;15.50;;;6.90;;
65174;SDS011;51761;42.126;24.752;2023-04-23T04:04:45;20.02;;;6.97;;
65174;SDS011;51761;42.126;24.752;2023-04-23T04:07:13;16.33;;;7.75;;
65174;SDS011;51761;42.126;24.752;2023-04-23T04:09:39;21.05;;;8.23;;
65174;SDS011;51761;42.126;24.752;2023-04-23T04:12:04;22.48;;;8.65;;
65174;SDS011;51761;42.126;24.752;2023-04-23T04:14:31;18.38;;;8.25;;
65174;SDS011;51761;42.126;24.752;2023-04-23T04:16:57;15.32;;;7.63;;
65174;SDS011;51761;42.126;24.752;2023-04-23T04:19:23;23.30;;;9.02;;
65174;SDS011;51761;42.126;24.752;2023-04-23T04:21:49;19.90;;;9.05;;
65174;SDS011;51761;42.126;24.752;2023-04-23T04:24:15;47.13;;;20.05;;
65174;SDS011;51761;42.126;24.752;2023-04-23T04:26:42;20.90;;;8.68;;
65174;SDS011;51761;42.126;24.752;2023-04-23T04:29:09;34.55;;;15.27;;
65174;SDS011;51761;42.126;24.752;2023-04-23T04:31:35;34.10;;;14.75;;
65174;SDS011;51761;42.126;24.752;2023-04-23T04:34:01;23.15;;;9.93;;
65174;SDS011;51761;42.126;24.752;2023-04-23T04:36:27;12.70;;;7.57;;
65174;SDS011;51761;42.126;24.752;2023-04-23T04:38:53;14.70;;;8.05;;
65174;SDS011;51761;42.126;24.752;2023-04-23T04:41:25;22.98;;;7.75;;
65174;SDS011;51761;42.126;24.752;2023-04-23T04:43:51;17.23;;;7.20;;
65174;SDS011;51761;42.126;24.752;2023-04-23T04:46:18;12.25;;;6.35;;
65174;SDS011;51761;42.126;24.752;2023-04-23T04:48:45;15.55;;;6.30;;
65174;SDS011;51761;42.126;24.752;2023-04-23T04:51:11;19.17;;;6.85;;
65174;SDS011;51761;42.126;24.752;2023-04-23T04:53:37;23.55;;;7.28;;
65174;SDS011;51761;42.126;24.752;2023-04-23T04:56:02;14.73;;;7.35;;
65174;SDS011;51761;42.126;24.752;2023-04-23T04:58:28;17.88;;;6.35;;
65174;SDS011;51761;42.126;24.752;2023-04-23T05:00:54;10.23;;;5.60;;
65174;SDS011;51761;42.126;24.752;2023-04-23T05:03:19;15.57;;;6.22;;
65174;SDS011;51761;42.126;24.752;2023-04-23T05:05:45;17.55;;;7.20;;
65174;SDS011;51761;42.126;24.752;2023-04-23T05:08:12;12.32;;;6.45;;
65174;SDS011;51761;42.126;24.752;2023-04-23T05:10:41;19.65;;;6.00;;
65174;SDS011;51761;42.126;24.752;2023-04-23T05:13:07;12.55;;;5.72;;
65174;SDS011;51761;42.126;24.752;2023-04-23T05:15:32;15.07;;;6.20;;
65174;SDS011;51761;42.126;24.752;2023-04-23T05:17:58;21.88;;;8.52;;
65174;SDS011;51761;42.126;24.752;2023-04-23T05:20:23;25.85;;;8.07;;
65174;SDS011;51761;42.126;24.752;2023-04-23T05:22:49;8.02;;;5.30;;
65174;SDS011;51761;42.126;24.752;2023-04-23T05:25:14;11.65;;;6.00;;
65174;SDS011;51761;42.126;24.752;2023-04-23T05:27:40;13.07;;;5.93;;
65174;SDS011;51761;42.126;24.752;2023-04-23T05:30:06;13.02;;;5.28;;
65174;SDS011;51761;42.126;24.752;2023-04-23T05:32:34;9.13;;;5.20;;
65174;SDS011;51761;42.126;24.752;2023-04-23T05:35:00;9.50;;;5.60;;
65174;SDS011;51761;42.126;24.752;2023-04-23T05:37:27;14.13;;;5.78;;
65174;SDS011;51761;42.126;24.752;2023-04-23T05:39:53;9.68;;;5.53;;
65174;SDS011;51761;42.126;24.752;2023-04-23T05:42:18;23.50;;;7.40;;
65174;SDS011;51761;42.126;24.752;2023-04-23T05:44:44;12.48;;;6.47;;
65174;SDS011;51761;42.126;24.752;2023-04-23T05:47:10;12.82;;;6.30;;
65174;SDS011;51761;42.126;24.752;2023-04-23T05:49:37;16.20;;;6.18;;
65174;SDS011;51761;42.126;24.752;2023-04-23T05:52:03;13.70;;;6.28;;
65174;SDS011;51761;42.126;24.752;2023-04-23T05:54:28;12.80;;;5.47;;
65174;SDS011;51761;42.126;24.752;2023-04-23T05:56:54;13.88;;;5.50;;
65174;SDS011;51761;42.126;24.752;2023-04-23T05:59:20;14.38;;;5.63;;
65174;SDS011;51761;42.126;24.752;2023-04-23T06:01:46;11.15;;;5.43;;
65174;SDS011;51761;42.126;24.752;2023-04-23T06:04:12;12.35;;;5.60;;
65174;SDS011;51761;42.126;24.752;2023-04-23T06:06:38;9.75;;;4.85;;
65174;SDS011;51761;42.126;24.752;2023-04-23T06:09:04;15.88;;;5.45;;
65174;SDS011;51761;42.126;24.752;2023-04-23T06:11:31;11.80;;;5.20;;
65174;SDS011;51761;42.126;24.752;2023-04-23T06:13:57;11.85;;;5.03;;
65174;SDS011;51761;42.126;24.752;2023-04-23T06:16:23;11.70;;;5.05;;
65174;SDS011;51761;42.126;24.752;2023-04-23T06:18:49;9.52;;;5.03;;
65174;SDS011;51761;42.126;24.752;2023-04-23T06:21:15;10.20;;;5.13;;
65174;SDS011;51761;42.126;24.752;2023-04-23T06:23:41;10.18;;;4.53;;
65174;SDS011;51761;42.126;24.752;2023-04-23T06:26:06;16.73;;;5.65;;
65174;SDS011;51761;42.126;24.752;2023-04-23T06:28:32;15.80;;;5.45;;
65174;SDS011;51761;42.126;24.752;2023-04-23T06:30:57;13.15;;;4.97;;
65174;SDS011;51761;42.126;24.752;2023-04-23T06:33:23;13.10;;;5.88;;
65174;SDS011;51761;42.126;24.752;2023-04-23T06:35:48;10.70;;;5.80;;
65174;SDS011;51761;42.126;24.752;2023-04-23T06:38:14;12.77;;;6.18;;
65174;SDS011;51761;42.126;24.752;2023-04-23T06:40:40;13.65;;;5.82;;
65174;SDS011;51761;42.126;24.752;2023-04-23T06:43:05;11.70;;;5.68;;
65174;SDS011;51761;42.126;24.752;2023-04-23T06:45:32;14.57;;;5.80;;
65174;SDS011;51761;42.126;24.752;2023-04-23T06:47:58;11.98;;;6.30;;
65174;SDS011;51761;42.126;24.752;2023-04-23T06:50:25;11.00;;;5.65;;
65174;SDS011;51761;42.126;24.752;2023-04-23T06:52:51;9.95;;;6.05;;
65174;SDS011;51761;42.126;24.752;2023-04-23T06:55:17;16.00;;;6.35;;
65174;SDS011;51761;42.126;24.752;2023-04-23T06:57:42;14.15;;;6.22;;
65174;SDS011;51761;42.126;24.752;2023-04-23T07:00:08;13.48;;;6.03;;
65174;SDS011;51761;42.126;24.752;2023-04-23T07:02:35;27.73;;;13.32;;
65174;SDS011;51761;42.126;24.752;2023-04-23T07:05:01;18.83;;;6.30;;
65174;SDS011;51761;42.126;24.752;2023-04-23T07:07:27;16.23;;;6.25;;
65174;SDS011;51761;42.126;24.752;2023-04-23T07:09:52;17.55;;;6.95;;
65174;SDS011;51761;42.126;24.752;2023-04-23T07:12:18;15.27;;;5.60;;
65174;SDS011;51761;42.126;24.752;2023-04-23T07:14:43;24.52;;;12.35;;
65174;SDS011;51761;42.126;24.752;2023-04-23T07:17:09;13.82;;;5.78;;
65174;SDS011;51761;42.126;24.752;2023-04-23T07:19:35;12.45;;;6.00;;
65174;SDS011;51761;42.126;24.752;2023-04-23T07:22:01;17.92;;;5.63;;
65174;SDS011;51761;42.126;24.752;2023-04-23T07:24:27;13.70;;;5.88;;
65174;SDS011;51761;42.126;24.752;2023-04-23T07:26:53;13.18;;;5.13;;
65174;SDS011;51761;42.126;24.752;2023-04-23T07:29:18;12.48;;;5.65;;
65174;SDS011;51761;42.126;24.752;2023-04-23T07:31:44;13.52;;;5.63;;
65174;SDS011;51761;42.126;24.752;2023-04-23T07:34:10;15.63;;;5.72;;
65174;SDS011;51761;42.126;24.752;2023-04-23T07:36:36;12.20;;;5.40;;
65174;SDS011;51761;42.126;24.752;2023-04-23T07:39:01;17.20;;;7.45;;
65174;SDS011;51761;42.126;24.752;2023-04-23T07:41:29;20.63;;;6.82;;
65174;SDS011;51761;42.126;24.752;2023-04-23T07:43:55;11.98;;;6.38;;
65174;SDS011;51761;42.126;24.752;2023-04-23T07:46:20;11.68;;;6.50;;
65174;SDS011;51761;42.126;24.752;2023-04-23T07:48:46;17.00;;;6.95;;
65174;SDS011;51761;42.126;24.752;2023-04-23T07:51:11;16.60;;;6.47;;
65174;SDS011;51761;42.126;24.752;2023-04-23T07:53:37;11.48;;;6.13;;
65174;SDS011;51761;42.126;24.752;2023-04-23T07:56:02;53.20;;;29.30;;
65174;SDS011;51761;42.126;24.752;2023-04-23T07:58:28;55.03;;;27.30;;
65174;SDS011;51761;42.126;24.752;2023-04-23T08:00:53;48.22;;;24.25;;
65174;SDS011;51761;42.126;24.752;2023-04-23T08:03:19;16.70;;;7.90;;
65174;SDS011;51761;42.126;24.752;2023-04-23T08:05:44;15.35;;;7.43;;
65174;SDS011;51761;42.126;24.752;2023-04-23T08:08:11;12.82;;;6.90;;
65174;SDS011;51761;42.126;24.752;2023-04-23T08:10:37;20.45;;;8.70;;
65174;SDS011;51761;42.126;24.752;2023-04-23T08:13:02;15.68;;;7.50;;
65174;SDS011;51761;42.126;24.752;2023-04-23T08:15:28;14.48;;;8.65;;
65174;SDS011;51761;42.126;24.752;2023-04-23T08:17:54;21.13;;;7.15;;
65174;SDS011;51761;42.126;24.752;2023-04-23T08:20:19;18.95;;;8.32;;
65174;SDS011;51761;42.126;24.752;2023-04-23T08:22:45;17.10;;;6.28;;
65174;SDS011;51761;42.126;24.752;2023-04-23T08:25:10;17.58;;;6.68;;
65174;SDS011;51761;42.126;24.752;2023-04-23T08:27:39;21.98;;;5.95;;
65174;SDS011;51761;42.126;24.752;2023-04-23T08:30:04;16.33;;;5.80;;
65174;SDS011;51761;42.126;24.752;2023-04-23T08:32:31;9.85;;;5.88;;
65174;SDS011;51761;42.126;24.752;2023-04-23T08:34:57;12.15;;;5.60;;
65174;SDS011;51761;42.126;24.752;2023-04-23T08:37:23;14.55;;;6.07;;
65174;SDS011;51761;42.126;24.752;2023-04-23T08:39:48;15.63;;;6.93;;
65174;SDS011;51761;42.126;24.752;2023-04-23T08:42:14;14.15;;;6.88;;
65174;SDS011;51761;42.126;24.752;2023-04-23T08:44:47;19.97;;;7.20;;
65174;SDS011;51761;42.126;24.752;2023-04-23T08:47:16;17.70;;;6.70;;
65174;SDS011;51761;42.126;24.752;2023-04-23T08:49:42;10.40;;;4.40;;
65174;SDS011;51761;42.126;24.752;2023-04-23T08:52:32;11.20;;;3.38;;
65174;SDS011;51761;42.126;24.752;2023-04-23T08:54:59;11.70;;;3.30;;
65174;SDS011;51761;42.126;24.752;2023-04-23T08:57:25;11.35;;;3.88;;
65174;SDS011;51761;42.126;24.752;2023-04-23T08:59:51;10.63;;;3.78;;
65174;SDS011;51761;42.126;24.752;2023-04-23T09:02:17;5.95;;;2.95;;
65174;SDS011;51761;42.126;24.752;2023-04-23T09:04:43;9.45;;;3.28;;
65174;SDS011;51761;42.126;24.752;2023-04-23T09:07:10;6.82;;;3.20;;
65174;SDS011;51761;42.126;24.752;2023-04-23T09:09:37;5.70;;;3.22;;
65174;SDS011;51761;42.126;24.752;2023-04-23T09:12:04;9.52;;;3.10;;
65174;SDS011;51761;42.126;24.752;2023-04-23T09:14:31;10.38;;;3.30;;
65174;SDS011;51761;42.126;24.752;2023-04-23T09:16:57;9.88;;;4.00;;
65174;SDS011;51761;42.126;24.752;2023-04-23T09:19:24;5.68;;;3.17;;
65174;SDS011;51761;42.126;24.752;2023-04-23T09:21:54;5.13;;;2.92;;
65174;SDS011;51761;42.126;24.752;2023-04-23T09:24:22;4.78;;;3.20;;
65174;SDS011;51761;42.126;24.752;2023-04-23T09:26:48;6.75;;;3.10;;
65174;SDS011;51761;42.126;24.752;2023-04-23T09:29:15;9.82;;;3.53;;
65174;SDS011;51761;42.126;24.752;2023-04-23T09:31:43;4.47;;;3.35;;
65174;SDS011;51761;42.126;24.752;2023-04-23T09:34:11;7.45;;;3.13;;
65174;SDS011;51761;42.126;24.752;2023-04-23T09:36:44;7.63;;;3.47;;
65174;SDS011;51761;42.126;24.752;2023-04-23T09:39:13;10.95;;;3.88;;
65174;SDS011;51761;42.126;24.752;2023-04-23T09:41:40;7.50;;;3.90;;
65174;SDS011;51761;42.126;24.752;2023-04-23T09:44:06;8.02;;;3.80;;
65174;SDS011;51761;42.126;24.752;2023-04-23T09:46:41;8.57;;;3.63;;
65174;SDS011;51761;42.126;24.752;2023-04-23T09:49:08;11.13;;;3.42;;
65174;SDS011;51761;42.126;24.752;2023-04-23T09:51:41;9.75;;;3.35;;
65174;SDS011;51761;42.126;24.752;2023-04-23T09:56:36;9.18;;;3.28;;
65174;SDS011;51761;42.126;24.752;2023-04-23T09:59:03;8.35;;;3.47;;
65174;SDS011;51761;42.126;24.752;2023-04-23T10:01:49;7.88;;;3.47;;
65174;SDS011;51761;42.126;24.752;2023-04-23T10:04:19;6.47;;;3.78;;
65174;SDS011;51761;42.126;24.752;2023-04-23T10:06:52;7.50;;;3.20;;
65174;SDS011;51761;42.126;24.752;2023-04-23T10:09:20;7.93;;;3.13;;
65174;SDS011;51761;42.126;24.752;2023-04-23T10:11:51;11.05;;;3.00;;
65174;SDS011;51761;42.126;24.752;2023-04-23T10:14:18;15.05;;;3.45;;
65174;SDS011;51761;42.126;24.752;2023-04-23T10:16:45;11.75;;;3.90;;
65174;SDS011;51761;42.126;24.752;2023-04-23T10:19:16;6.53;;;3.20;;
65174;SDS011;51761;42.126;24.752;2023-04-23T10:21:48;8.07;;;3.70;;
65174;SDS011;51761;42.126;24.752;2023-04-23T10:24:18;10.35;;;3.13;;
65174;SDS011;51761;42.126;24.752;2023-04-23T10:26:45;5.68;;;3.30;;
65174;SDS011;51761;42.126;24.752;2023-04-23T10:29:13;8.07;;;3.60;;
65174;SDS011;51761;42.126;24.752;2023-04-23T10:31:41;12.13;;;3.35;;
65174;SDS011;51761;42.126;24.752;2023-04-23T10:34:08;6.72;;;2.97;;
65174;SDS011;51761;42.126;24.752;2023-04-23T10:36:35;10.52;;;3.10;;
65174;SDS011;51761;42.126;24.752;2023-04-23T10:39:01;6.60;;;3.10;;
65174;SDS011;51761;42.126;24.752;2023-04-23T10:41:34;10.70;;;4.05;;
65174;SDS011;51761;42.126;24.752;2023-04-23T10:44:06;6.53;;;3.03;;
65174;SDS011;51761;42.126;24.752;2023-04-23T10:46:36;7.82;;;3.40;;
65174;SDS011;51761;42.126;24.752;2023-04-23T10:49:11;10.30;;;3.17;;
65174;SDS011;51761;42.126;24.752;2023-04-23T10:51:41;10.65;;;3.25;;
65174;SDS011;51761;42.126;24.752;2023-04-23T10:54:10;9.88;;;3.15;;
65174;SDS011;51761;42.126;24.752;2023-04-23T10:56:39;15.57;;;4.78;;
65174;SDS011;51761;42.126;24.752;2023-04-23T10:59:06;8.57;;;3.03;;
65174;SDS011;51761;42.126;24.752;2023-04-23T11:01:54;10.55;;;3.78;;
65174;SDS011;51761;42.126;24.752;2023-04-23T11:04:25;7.55;;;3.10;;
65174;SDS011;51761;42.126;24.752;2023-04-23T11:07:14;7.88;;;3.20;;
65174;SDS011;51761;42.126;24.752;2023-04-23T11:09:42;8.40;;;4.00;;
65174;SDS011;51761;42.126;24.752;2023-04-23T11:12:11;8.55;;;3.55;;
65174;SDS011;51761;42.126;24.752;2023-04-23T11:14:49;9.88;;;3.20;;
65174;SDS011;51761;42.126;24.752;2023-04-23T11:17:16;6.40;;;3.78;;
65174;SDS011;51761;42.126;24.752;2023-04-23T11:22:46;7.60;;;3.70;;
65174;SDS011;51761;42.126;24.752;2023-04-23T11:27:45;17.55;;;3.97;;
65174;SDS011;51761;42.126;24.752;2023-04-23T11:30:11;9.57;;;3.75;;
65174;SDS011;51761;42.126;24.752;2023-04-23T11:32:38;14.20;;;3.97;;
65174;SDS011;51761;42.126;24.752;2023-04-23T11:35:07;10.43;;;4.57;;
65174;SDS011;51761;42.126;24.752;2023-04-23T11:37:37;8.38;;;3.50;;
65174;SDS011;51761;42.126;24.752;2023-04-23T11:40:05;16.00;;;3.78;;
65174;SDS011;51761;42.126;24.752;2023-04-23T11:42:47;7.85;;;3.60;;
65174;SDS011;51761;42.126;24.752;2023-04-23T11:45:22;8.00;;;3.58;;
65174;SDS011;51761;42.126;24.752;2023-04-23T11:47:56;7.05;;;3.42;;
65174;SDS011;51761;42.126;24.752;2023-04-23T11:50:24;14.43;;;3.50;;
65174;SDS011;51761;42.126;24.752;2023-04-23T11:52:51;9.07;;;3.92;;
65174;SDS011;51761;42.126;24.752;2023-04-23T11:55:18;7.20;;;3.88;;
65174;SDS011;51761;42.126;24.752;2023-04-23T11:57:45;13.27;;;3.47;;
65174;SDS011;51761;42.126;24.752;2023-04-23T12:02:51;14.70;;;3.72;;
65174;SDS011;51761;42.126;24.752;2023-04-23T12:05:21;10.73;;;4.45;;
65174;SDS011;51761;42.126;24.752;2023-04-23T12:07:51;10.80;;;3.70;;
65174;SDS011;51761;42.126;24.752;2023-04-23T12:10:18;8.88;;;3.70;;
65174;SDS011;51761;42.126;24.752;2023-04-23T12:12:48;7.68;;;3.17;;
65174;SDS011;51761;42.126;24.752;2023-04-23T12:15:15;9.98;;;2.90;;
65174;SDS011;51761;42.126;24.752;2023-04-23T12:17:41;6.15;;;3.30;;
65174;SDS011;51761;42.126;24.752;2023-04-23T12:20:08;10.10;;;3.20;;
65174;SDS011;51761;42.126;24.752;2023-04-23T12:22:37;7.00;;;3.15;;
65174;SDS011;51761;42.126;24.752;2023-04-23T12:25:04;11.00;;;3.60;;
65174;SDS011;51761;42.126;24.752;2023-04-23T12:27:37;6.50;;;3.28;;
65174;SDS011;51761;42.126;24.752;2023-04-23T12:30:04;10.88;;;4.25;;
65174;SDS011;51761;42.126;24.752;2023-04-23T12:32:32;15.48;;;3.53;;
65174;SDS011;51761;42.126;24.752;2023-04-23T12:34:58;7.03;;;3.08;;
65174;SDS011;51761;42.126;24.752;2023-04-23T12:37:24;10.68;;;3.20;;
65174;SDS011;51761;42.126;24.752;2023-04-23T12:39:51;5.22;;;3.03;;
65174;SDS011;51761;42.126;24.752;2023-04-23T12:42:18;10.05;;;4.03;;
65174;SDS011;51761;42.126;24.752;2023-04-23T12:44:44;7.28;;;3.67;;
65174;SDS011;51761;42.126;24.752;2023-04-23T12:47:10;10.10;;;3.58;;
65174;SDS011;51761;42.126;24.752;2023-04-23T12:49:37;6.47;;;3.58;;
65174;SDS011;51761;42.126;24.752;2023-04-23T12:52:04;4.82;;;3.58;;
65174;SDS011;51761;42.126;24.752;2023-04-23T12:54:31;6.35;;;2.97;;
65174;SDS011;51761;42.126;24.752;2023-04-23T12:56:59;12.80;;;3.45;;
65174;SDS011;51761;42.126;24.752;2023-04-23T12:59:28;10.40;;;3.53;;
65174;SDS011;51761;42.126;24.752;2023-04-23T13:01:55;8.98;;;3.90;;
65174;SDS011;51761;42.126;24.752;2023-04-23T13:04:21;16.02;;;3.78;;
65174;SDS011;51761;42.126;24.752;2023-04-23T13:06:46;10.85;;;3.50;;
65174;SDS011;51761;42.126;24.752;2023-04-23T13:09:12;10.07;;;4.03;;
65174;SDS011;51761;42.126;24.752;2023-04-23T13:11:39;8.57;;;3.60;;
65174;SDS011;51761;42.126;24.752;2023-04-23T13:14:05;7.43;;;3.65;;
65174;SDS011;51761;42.126;24.752;2023-04-23T13:16:31;10.45;;;4.55;;
65174;SDS011;51761;42.126;24.752;2023-04-23T13:18:58;8.57;;;2.90;;
65174;SDS011;51761;42.126;24.752;2023-04-23T13:21:24;7.57;;;3.33;;
65174;SDS011;51761;42.126;24.752;2023-04-23T13:23:50;5.43;;;2.80;;
65174;SDS011;51761;42.126;24.752;2023-04-23T13:26:16;14.13;;;3.00;;
65174;SDS011;51761;42.126;24.752;2023-04-23T13:28:42;7.30;;;4.03;;
65174;SDS011;51761;42.126;24.752;2023-04-23T13:31:08;13.45;;;3.50;;
65174;SDS011;51761;42.126;24.752;2023-04-23T13:33:36;8.50;;;3.13;;
65174;SDS011;51761;42.126;24.752;2023-04-23T13:36:02;8.15;;;3.60;;
65174;SDS011;51761;42.126;24.752;2023-04-23T13:38:28;4.78;;;2.90;;
65174;SDS011;51761;42.126;24.752;2023-04-23T13:40:54;7.45;;;3.35;;
65174;SDS011;51761;42.126;24.752;2023-04-23T13:43:20;5.95;;;3.03;;
65174;SDS011;51761;42.126;24.752;2023-04-23T13:45:45;7.82;;;3.55;;
65174;SDS011;51761;42.126;24.752;2023-04-23T13:48:11;10.30;;;4.80;;
65174;SDS011;51761;42.126;24.752;2023-04-23T13:50:40;5.45;;;3.30;;
65174;SDS011;51761;42.126;24.752;2023-04-23T13:53:07;7.13;;;2.80;;
65174;SDS011;51761;42.126;24.752;2023-04-23T13:55:34;6.05;;;3.70;;
65174;SDS011;51761;42.126;24.752;2023-04-23T13:57:59;4.50;;;2.63;;
65174;SDS011;51761;42.126;24.752;2023-04-23T14:00:26;9.60;;;3.67;;
65174;SDS011;51761;42.126;24.752;2023-04-23T14:02:53;12.68;;;3.53;;
65174;SDS011;51761;42.126;24.752;2023-04-23T14:05:19;4.22;;;2.63;;
65174;SDS011;51761;42.126;24.752;2023-04-23T14:07:44;7.00;;;3.03;;
65174;SDS011;51761;42.126;24.752;2023-04-23T14:10:10;8.60;;;2.97;;
65174;SDS011;51761;42.126;24.752;2023-04-23T14:12:36;11.98;;;3.95;;
65174;SDS011;51761;42.126;24.752;2023-04-23T14:15:04;9.55;;;3.90;;
65174;SDS011;51761;42.126;24.752;2023-04-23T14:17:32;6.63;;;3.13;;
65174;SDS011;51761;42.126;24.752;2023-04-23T14:19:59;10.65;;;3.40;;
65174;SDS011;51761;42.126;24.752;2023-04-23T14:22:24;5.72;;;2.83;;
65174;SDS011;51761;42.126;24.752;2023-04-23T14:24:52;6.13;;;3.03;;
65174;SDS011;51761;42.126;24.752;2023-04-23T14:27:24;11.18;;;3.45;;
65174;SDS011;51761;42.126;24.752;2023-04-23T14:29:51;12.38;;;3.20;;
65174;SDS011;51761;42.126;24.752;2023-04-23T14:32:21;5.97;;;3.35;;